createdAt,value
2022-10-28T00:02:48.249Z,99042.31
2022-10-28T00:08:16.299Z,99035.97
2022-10-28T00:13:40.177Z,99041.22
2022-10-28T00:19:07.232Z,99043.75
2022-10-28T00:24:35.719Z,99049.38
2022-10-28T00:30:06.191Z,99033.81
2022-10-28T00:35:33.205Z,99041.44
2022-10-28T00:41:00.206Z,99048.41
2022-10-28T00:46:30.212Z,99040.53
2022-10-28T00:51:56.561Z,99039.22
2022-10-28T00:57:26.705Z,99041.94
2022-10-28T01:02:56.277Z,99031.31
2022-10-28T01:08:21.235Z,99035.91
2022-10-28T01:13:58.290Z,99026.59
2022-10-28T01:19:54.231Z,99028.09
2022-10-28T01:26:00.239Z,99026.94
2022-10-28T01:31:44.243Z,99029.53
2022-10-28T01:37:15.238Z,99032.44
2022-10-28T01:42:48.231Z,99025.16
2022-10-28T01:48:17.241Z,99017.19
2022-10-28T01:53:48.422Z,99015.13
2022-10-28T01:59:15.251Z,99022.59
2022-10-28T02:04:43.268Z,99021.09
2022-10-28T02:10:26.278Z,99018.56
2022-10-28T02:15:59.270Z,99013.44
2022-10-28T02:21:34.313Z,99013.63
2022-10-28T02:27:05.291Z,99006.50
2022-10-28T02:32:35.270Z,98999.91
2022-10-28T02:38:04.271Z,98993.31
2022-10-28T02:43:31.312Z,98996.38
2022-10-28T02:48:59.272Z,98993.00
2022-10-28T02:54:30.319Z,98979.28
2022-10-28T03:00:04.288Z,98977.97
2022-10-28T03:05:29.466Z,98971.53
2022-10-28T03:10:58.302Z,98978.16
2022-10-28T03:16:22.308Z,98982.09
2022-10-28T03:21:47.311Z,98977.19
2022-10-28T03:27:22.568Z,98996.34
2022-10-28T03:32:50.655Z,98988.88
2022-10-28T03:38:15.309Z,98975.00
2022-10-28T03:43:48.324Z,98976.38
2022-10-28T03:49:27.341Z,98979.75
2022-10-28T04:00:26.630Z,98985.84
2022-10-28T04:05:50.347Z,98990.59
2022-10-28T04:11:15.339Z,98988.22
2022-10-28T04:16:42.335Z,98989.94
2022-10-28T04:27:27.363Z,98995.34
2022-10-28T04:32:55.361Z,98999.75
2022-10-28T04:44:09.409Z,98976.03
2022-10-28T04:49:43.382Z,98976.38
2022-10-28T05:00:29.351Z,98986.53
2022-10-28T05:05:57.376Z,98989.59
2022-10-28T05:11:21.372Z,98979.44
2022-10-28T05:16:46.428Z,98988.94
2022-10-28T05:22:15.432Z,98985.22
2022-10-28T05:27:40.369Z,98987.09
2022-10-28T05:33:04.432Z,98992.66
2022-10-28T05:38:32.389Z,98993.34
2022-10-28T05:43:57.445Z,98996.75
2022-10-28T05:49:27.497Z,98996.06
2022-10-28T05:54:54.422Z,98992.50
2022-10-28T06:00:21.398Z,99007.94
2022-10-28T06:05:47.397Z,98994.19
2022-10-28T06:11:14.037Z,98989.44
2022-10-28T06:16:42.357Z,98997.75
2022-10-28T06:22:06.917Z,99002.31
2022-10-28T06:27:40.944Z,99010.81
2022-10-28T06:33:12.005Z,99021.63
2022-10-28T06:38:38.961Z,99018.38
2022-10-28T06:44:06.903Z,99029.72
2022-10-28T06:49:32.441Z,99031.63
2022-10-28T06:54:57.445Z,99036.38
2022-10-28T07:00:25.596Z,99029.72
2022-10-28T07:05:50.525Z,99026.47
2022-10-28T07:11:16.560Z,99030.47
2022-10-28T07:16:44.507Z,99039.09
2022-10-28T07:22:30.454Z,99040.72
2022-10-28T07:27:55.878Z,99035.09
2022-10-28T07:33:23.507Z,99023.81
2022-10-28T07:38:49.529Z,99022.88
2022-10-28T07:44:14.507Z,99008.03
2022-10-28T07:49:42.645Z,98998.63
2022-10-28T07:55:08.566Z,98988.34
2022-10-28T08:00:33.577Z,98979.66
2022-10-28T08:06:00.512Z,98967.72
2022-10-28T08:11:29.499Z,98956.09
2022-10-28T08:16:53.512Z,98953.28
2022-10-28T08:22:21.713Z,98942.44
2022-10-28T08:27:48.483Z,98929.50
2022-10-28T08:33:13.513Z,98929.19
2022-10-28T08:38:45.086Z,98909.66
2022-10-28T08:44:33.511Z,98883.09
2022-10-28T08:50:00.516Z,98896.47
2022-10-28T08:55:32.575Z,98891.19
2022-10-28T09:01:03.564Z,98894.03
2022-10-28T09:06:28.503Z,98902.97
2022-10-28T09:12:12.503Z,98906.09
2022-10-28T09:17:49.520Z,98908.94
2022-10-28T09:23:15.515Z,98904.41
2022-10-28T09:29:01.595Z,98899.84
2022-10-28T09:34:39.517Z,98908.53
2022-10-28T09:40:09.540Z,98909.63
2022-10-28T09:45:43.731Z,98919.56
2022-10-28T09:51:10.578Z,98922.94
2022-10-28T09:56:35.133Z,98913.38
2022-10-28T10:02:02.732Z,98910.91
2022-10-28T10:07:46.525Z,98905.47
2022-10-28T10:13:14.883Z,98902.56
2022-10-28T10:18:48.583Z,98899.44
2022-10-28T10:24:38.589Z,98885.41
2022-10-28T10:30:04.594Z,98900.19
2022-10-28T10:35:35.587Z,98892.25
2022-10-28T10:41:04.709Z,98872.56
2022-10-28T10:46:29.554Z,98880.16
2022-10-28T10:52:06.826Z,98878.25
2022-10-28T10:57:32.565Z,98874.50
2022-10-28T11:03:01.595Z,98864.81
2022-10-28T11:08:40.812Z,98863.72
2022-10-28T11:14:19.623Z,98863.88
2022-10-28T11:19:46.940Z,98864.00
2022-10-28T11:25:38.577Z,98854.59
2022-10-28T11:31:13.619Z,98849.66
2022-10-28T11:36:43.626Z,98850.75
2022-10-28T11:42:25.645Z,98853.69
2022-10-28T11:48:17.776Z,98849.09
2022-10-28T11:54:11.009Z,98860.34
2022-10-28T12:00:00.633Z,98862.06
2022-10-28T12:05:36.876Z,98863.16
2022-10-28T12:11:16.640Z,98857.94
2022-10-28T12:16:50.613Z,98862.47
2022-10-28T12:22:24.806Z,98856.59
2022-10-28T12:27:54.638Z,98849.63
2022-10-28T12:33:28.033Z,98849.47
2022-10-28T12:38:58.801Z,98838.03
2022-10-28T12:44:28.635Z,98831.28
2022-10-28T12:50:00.658Z,98821.13
2022-10-28T12:55:37.717Z,98815.41
2022-10-28T13:01:07.821Z,98808.75
2022-10-28T13:07:14.664Z,98807.75
2022-10-28T13:13:21.730Z,98793.13
2022-10-28T13:19:29.677Z,98805.63
2022-10-28T13:25:07.682Z,98797.09
2022-10-28T13:30:34.721Z,98794.09
2022-10-28T13:36:00.988Z,98792.78
2022-10-28T13:41:50.190Z,98800.06
2022-10-28T13:47:36.695Z,98800.31
2022-10-28T13:53:02.752Z,98796.09
2022-10-28T13:58:34.731Z,98801.19
2022-10-28T14:04:07.730Z,98799.63
2022-10-28T14:09:41.048Z,98792.94
2022-10-28T14:15:13.799Z,98781.44
2022-10-28T14:20:42.736Z,98778.34
2022-10-28T14:26:20.396Z,98782.94
2022-10-28T14:31:56.737Z,98780.38
2022-10-28T14:37:52.977Z,98784.38
2022-10-28T14:43:35.773Z,98783.75
2022-10-28T14:49:11.613Z,98787.19
2022-10-28T14:54:44.799Z,98787.78
2022-10-28T15:00:10.722Z,98790.19
2022-10-28T15:05:41.833Z,98781.50
2022-10-28T15:11:07.240Z,98780.50
2022-10-28T15:16:34.772Z,98775.28
2022-10-28T15:22:16.057Z,98777.31
2022-10-28T15:27:42.790Z,98782.06
2022-10-28T15:33:07.779Z,98777.28
2022-10-28T15:38:53.790Z,98784.34
2022-10-28T15:44:20.759Z,98778.31
2022-10-28T15:49:47.924Z,98781.09
2022-10-28T15:55:15.777Z,98786.00
2022-10-28T16:00:43.140Z,98779.94
2022-10-28T16:06:07.815Z,98787.78
2022-10-28T16:11:35.808Z,98788.88
2022-10-28T16:17:01.881Z,98791.84
2022-10-28T16:22:27.977Z,98803.81
2022-10-28T16:27:56.032Z,98796.47
2022-10-28T16:33:20.884Z,98802.34
2022-10-28T16:38:45.780Z,98796.88
2022-10-28T16:44:13.856Z,98787.84
2022-10-28T16:49:37.824Z,98781.97
2022-10-28T16:55:02.803Z,98788.06
2022-10-28T17:00:32.883Z,98789.75
2022-10-28T17:05:57.829Z,98794.38
2022-10-28T17:11:23.904Z,98795.00
2022-10-28T17:16:51.817Z,98791.41
2022-10-28T17:22:16.854Z,98792.06
2022-10-28T17:27:41.853Z,98793.72
2022-10-28T17:33:09.870Z,98786.75
2022-10-28T17:38:34.850Z,98793.06
2022-10-28T17:43:58.873Z,98797.47
2022-10-28T17:49:27.303Z,98805.03
2022-10-28T17:54:51.853Z,98804.97
2022-10-28T18:00:18.861Z,98801.19
2022-10-28T18:05:45.883Z,98818.59
2022-10-28T18:11:10.900Z,98821.28
2022-10-28T18:16:36.911Z,98828.75
2022-10-28T18:22:04.862Z,98824.31
2022-10-28T18:27:28.875Z,98820.47
2022-10-28T18:32:54.051Z,98815.34
2022-10-28T18:38:20.920Z,98817.16
2022-10-28T18:43:45.896Z,98825.06
2022-10-28T18:49:11.877Z,98814.31
2022-10-28T18:54:39.960Z,98813.44
2022-10-28T19:00:19.788Z,98818.88
2022-10-28T19:05:50.904Z,98813.22
2022-10-28T19:11:20.969Z,98805.50
2022-10-28T19:16:46.905Z,98801.06
2022-10-28T19:22:11.949Z,98814.22
2022-10-28T19:27:41.594Z,98817.34
2022-10-28T19:33:05.932Z,98818.34
2022-10-28T19:38:31.071Z,98826.63
2022-10-28T19:44:02.963Z,98827.69
2022-10-28T19:49:32.442Z,98835.88
2022-10-28T19:55:00.974Z,98835.47
2022-10-28T20:00:29.198Z,98833.31
2022-10-28T20:05:59.930Z,98832.66
2022-10-28T20:11:27.218Z,98846.06
2022-10-28T20:16:55.947Z,98849.16
2022-10-28T20:22:22.962Z,98855.00
2022-10-28T20:27:47.002Z,98875.88
2022-10-28T20:33:15.036Z,98874.47
2022-10-28T20:38:40.298Z,98870.94
2022-10-28T20:44:04.968Z,98873.41
2022-10-28T20:49:32.052Z,98881.31
2022-10-28T20:54:57.252Z,98890.72
2022-10-28T21:00:22.972Z,98896.19
2022-10-28T21:05:51.111Z,98892.88
2022-10-28T21:11:16.983Z,98898.69
2022-10-28T21:16:41.993Z,98903.88
2022-10-28T21:22:08.985Z,98901.56
2022-10-28T21:27:34.030Z,98899.19
2022-10-28T21:32:58.310Z,98899.59
2022-10-28T21:38:25.983Z,98902.31
2022-10-28T21:43:54.020Z,98899.34
2022-10-28T21:49:18.984Z,98900.75
2022-10-28T21:54:47.149Z,98907.88
2022-10-28T22:00:12.035Z,98921.84
2022-10-28T22:05:36.054Z,98922.88
2022-10-28T22:11:11.029Z,98918.03
2022-10-28T22:16:35.011Z,98921.13
2022-10-28T22:22:00.003Z,98935.25
2022-10-28T22:27:27.059Z,98929.38
2022-10-28T22:32:52.192Z,98932.19
2022-10-28T22:38:16.056Z,98937.34
2022-10-28T22:43:50.043Z,98942.53
2022-10-28T22:49:16.171Z,98937.81
2022-10-28T22:54:40.231Z,98934.16
2022-10-28T23:00:08.117Z,98943.06
2022-10-28T23:05:32.083Z,98949.06
2022-10-28T23:10:57.105Z,98942.13
2022-10-28T23:16:27.155Z,98947.56
2022-10-28T23:21:52.067Z,98950.28
2022-10-28T23:27:17.073Z,98947.09
2022-10-28T23:32:45.075Z,98949.81
2022-10-28T23:38:09.067Z,98950.00
2022-10-28T23:43:34.092Z,98954.25
2022-10-28T23:49:01.097Z,98954.03
2022-10-28T23:54:26.101Z,98946.75
2022-10-28T23:59:50.112Z,98951.13
